Time;durP1;ratioP1;P1;durP2;ratioP2;P2;SDS_P1;SDS_P2;PMS_P1;PMS_P2;Temp;Humidity;BMP_temperature;BMP_pressure;BME280_temperature;BME280_humidity;BME280_pressure;Samples;Min_cycle;Max_cycle;Signal;HPM_P1;HPM_P2
2023/01/08 00:02:23;;;;;;;4.43;3.38;;;10.10;99.90;;;;;;4953717;28;20511;-79
2023/01/08 00:04:49;;;;;;;4.50;3.45;;;10.10;99.90;;;;;;4985560;28;20049;-79
2023/01/08 00:07:15;;;;;;;4.88;3.95;;;10.10;99.90;;;;;;4985772;28;20500;-80
2023/01/08 00:09:41;;;;;;;5.35;3.67;;;10.10;99.90;;;;;;4953845;28;20038;-79
2023/01/08 00:12:07;;;;;;;5.10;3.80;;;10.10;99.90;;;;;;4952429;28;20049;-79
2023/01/08 00:14:32;;;;;;;5.05;3.85;;;10.10;99.90;;;;;;4954958;28;20046;-79
2023/01/08 00:16:58;;;;;;;4.78;4.05;;;10.00;99.90;;;;;;4952524;28;20077;-80
2023/01/08 00:19:24;;;;;;;5.72;3.60;;;10.00;99.90;;;;;;4984606;28;20139;-79
2023/01/08 00:21:50;;;;;;;6.10;3.72;;;10.10;99.90;;;;;;4952005;28;20181;-79
2023/01/08 00:24:15;;;;;;;4.78;4.10;;;10.10;99.90;;;;;;4952929;28;20068;-79
2023/01/08 00:26:41;;;;;;;6.25;3.88;;;10.20;99.90;;;;;;4969415;28;20507;-80
2023/01/08 00:29:07;;;;;;;6.32;4.93;;;10.20;99.90;;;;;;4966193;28;20038;-81
2023/01/08 00:31:36;;;;;;;4.90;4.32;;;10.20;99.90;;;;;;4970327;28;20049;-79
2023/01/08 00:34:01;;;;;;;6.70;4.43;;;10.10;99.90;;;;;;4972454;28;20038;-78
2023/01/08 00:36:27;;;;;;;8.45;5.18;;;10.10;99.90;;;;;;4971816;28;20068;-78
2023/01/08 00:38:53;;;;;;;8.23;5.40;;;10.00;99.90;;;;;;4971055;28;20132;-77
2023/01/08 00:41:19;;;;;;;6.72;5.45;;;10.00;99.90;;;;;;4959381;28;20061;-76
2023/01/08 00:43:44;;;;;;;7.72;4.97;;;9.90;99.90;;;;;;4989187;28;20501;-76
2023/01/08 00:46:10;;;;;;;7.82;5.72;;;9.90;99.90;;;;;;4968491;28;20042;-76
2023/01/08 00:48:37;;;;;;;7.10;5.68;;;9.90;99.90;;;;;;4969840;28;20137;-76
2023/01/08 00:51:04;;;;;;;5.90;5.30;;;9.80;99.90;;;;;;4956775;28;20149;-76
2023/01/08 00:53:30;;;;;;;8.27;5.53;;;9.80;99.90;;;;;;4961484;28;20090;-76
2023/01/08 00:56:01;;;;;;;8.60;5.70;;;9.80;99.90;;;;;;4967314;28;20049;-75
2023/01/08 00:58:27;;;;;;;6.20;5.50;;;9.80;99.90;;;;;;4971812;28;20038;-75
2023/01/08 01:00:53;;;;;;;6.97;5.15;;;9.80;99.90;;;;;;4971952;28;20054;-76
2023/01/08 01:03:19;;;;;;;7.05;5.50;;;9.80;99.90;;;;;;4974588;28;20046;-76
2023/01/08 01:05:44;;;;;;;6.55;5.43;;;9.80;99.90;;;;;;4984934;28;20057;-77
2023/01/08 01:08:10;;;;;;;7.63;5.18;;;9.80;99.90;;;;;;4985682;28;20138;-76
2023/01/08 01:10:38;;;;;;;7.70;5.30;;;9.80;99.90;;;;;;4969265;28;20054;-76
2023/01/08 01:13:03;;;;;;;7.80;4.60;;;9.80;99.90;;;;;;4983884;28;20072;-75
2023/01/08 01:15:29;;;;;;;6.82;4.53;;;9.80;99.90;;;;;;4985071;28;20046;-74
2023/01/08 01:17:55;;;;;;;5.85;4.05;;;9.80;99.90;;;;;;4965187;28;20113;-76
2023/01/08 01:20:22;;;;;;;5.65;4.20;;;9.80;99.90;;;;;;4979756;28;20039;-76
2023/01/08 01:22:48;;;;;;;5.18;3.88;;;9.80;99.90;;;;;;4984189;28;20057;-78
2023/01/08 01:25:14;;;;;;;5.32;3.58;;;9.80;99.90;;;;;;4984953;28;20096;-77
2023/01/08 01:27:40;;;;;;;6.10;3.13;;;9.80;99.90;;;;;;4948935;28;20055;-77
2023/01/08 01:30:07;;;;;;;5.85;2.80;;;9.80;99.90;;;;;;4984760;28;20145;-76
2023/01/08 01:32:36;;;;;;;4.97;2.47;;;9.80;99.90;;;;;;4985588;28;20072;-77
2023/01/08 01:35:02;;;;;;;6.57;2.50;;;9.70;99.90;;;;;;4954541;28;20042;-76
2023/01/08 01:37:28;;;;;;;4.43;2.28;;;9.70;99.90;;;;;;4985453;28;20053;-77
2023/01/08 01:39:55;;;;;;;7.45;2.42;;;9.60;99.90;;;;;;4966027;28;20038;-77
2023/01/08 01:42:39;;;;;;;7.35;2.42;;;9.60;99.90;;;;;;4962276;28;20172;-77
2023/01/08 01:45:22;;;;;;;7.68;2.03;;;9.60;99.90;;;;;;4948957;28;20692;-76
2023/01/08 01:47:58;;;;;;;6.78;2.00;;;9.60;99.90;;;;;;4966365;28;20038;-73
2023/01/08 01:50:46;;;;;;;5.30;1.60;;;9.50;99.90;;;;;;4964516;28;20049;-73
2023/01/08 01:53:22;;;;;;;5.55;1.85;;;9.50;99.90;;;;;;4982292;28;20050;-72
2023/01/08 01:55:49;;;;;;;6.35;1.80;;;9.40;99.90;;;;;;4982912;28;20104;-73
2023/01/08 01:58:22;;;;;;;6.80;1.92;;;9.40;99.90;;;;;;4965677;28;20549;-73
2023/01/08 02:00:49;;;;;;;7.68;1.88;;;9.30;99.90;;;;;;4966149;28;20065;-73
2023/01/08 02:03:15;;;;;;;7.95;1.67;;;9.30;99.90;;;;;;4963095;28;20045;-73
2023/01/08 02:05:52;;;;;;;6.90;1.60;;;9.20;99.90;;;;;;4983969;28;20140;-72
2023/01/08 02:08:29;;;;;;;6.45;1.90;;;9.20;99.90;;;;;;4985790;28;20034;-73
2023/01/08 02:11:13;;;;;;;8.85;2.03;;;9.10;99.90;;;;;;4981376;28;20046;-76
2023/01/08 02:13:44;;;;;;;8.30;1.77;;;9.10;99.90;;;;;;4983788;28;20046;-76
2023/01/08 02:16:20;;;;;;;9.95;2.15;;;9.00;99.90;;;;;;4966073;28;20644;-76
2023/01/08 02:18:52;;;;;;;6.15;1.63;;;9.00;99.90;;;;;;4982997;28;20531;-76
2023/01/08 02:21:23;;;;;;;7.93;1.90;;;9.00;99.90;;;;;;4983374;28;20594;-76
2023/01/08 02:24:07;;;;;;;9.90;2.03;;;9.00;99.90;;;;;;4968881;28;20382;-76
2023/01/08 02:26:34;;;;;;;10.98;2.60;;;8.90;99.90;;;;;;4965428;28;20081;-76
2023/01/08 02:29:04;;;;;;;9.32;2.03;;;8.90;99.90;;;;;;4972061;28;20088;-75
2023/01/08 02:31:32;;;;;;;12.50;2.63;;;8.90;99.90;;;;;;4965498;28;20486;-76
2023/01/08 02:33:58;;;;;;;10.27;2.20;;;8.90;99.90;;;;;;4965758;28;20293;-76
2023/01/08 02:36:43;;;;;;;10.57;2.45;;;8.90;99.90;;;;;;4969282;28;20053;-76
2023/01/08 02:39:46;;;;;;;9.68;2.13;;;8.90;99.90;;;;;;4966089;28;20050;-76
2023/01/08 02:42:39;;;;;;;11.93;2.30;;;8.80;99.90;;;;;;4964951;28;20042;-76
2023/01/08 02:45:22;;;;;;;9.52;2.50;;;8.80;99.90;;;;;;4977206;28;20049;-76
2023/01/08 02:47:54;;;;;;;9.82;2.30;;;8.80;99.90;;;;;;4966405;28;20057;-76
2023/01/08 02:50:43;;;;;;;12.48;2.88;;;8.80;99.90;;;;;;4983684;28;20524;-76
2023/01/08 02:53:21;;;;;;;12.57;2.42;;;8.80;99.90;;;;;;4984357;28;20044;-76
2023/01/08 02:55:51;;;;;;;10.00;2.35;;;8.80;99.90;;;;;;4982494;28;20065;-76
2023/01/08 02:58:19;;;;;;;9.95;2.20;;;8.80;99.90;;;;;;4968626;28;20139;-76
2023/01/08 03:00:46;;;;;;;8.50;2.47;;;8.70;99.90;;;;;;4965611;28;20058;-76
2023/01/08 03:03:14;;;;;;;11.25;2.40;;;8.70;99.90;;;;;;4963685;28;20453;-76
2023/01/08 03:05:42;;;;;;;12.07;2.60;;;8.70;99.90;;;;;;4965925;28;20042;-76
2023/01/08 03:08:10;;;;;;;10.32;2.53;;;8.70;99.90;;;;;;4982081;28;20054;-76
2023/01/08 03:10:40;;;;;;;11.48;2.28;;;8.80;99.90;;;;;;4967135;28;20049;-76
2023/01/08 03:13:33;;;;;;;8.05;2.03;;;8.70;99.90;;;;;;4980793;28;20085;-76
2023/01/08 03:16:02;;;;;;;8.73;2.05;;;8.70;99.90;;;;;;4981875;28;20045;-77
2023/01/08 03:18:44;;;;;;;12.47;2.50;;;8.70;99.90;;;;;;4961594;28;20571;-77
2023/01/08 03:21:12;;;;;;;12.05;2.30;;;8.70;99.90;;;;;;4950534;28;20050;-78
2023/01/08 03:23:40;;;;;;;13.60;3.03;;;8.70;99.90;;;;;;4972922;28;20055;-77
2023/01/08 03:26:08;;;;;;;10.38;2.97;;;8.70;99.90;;;;;;4965700;28;20124;-78
2023/01/08 03:28:37;;;;;;;11.65;2.70;;;8.70;99.90;;;;;;4971983;28;20501;-77
2023/01/08 03:31:05;;;;;;;10.75;3.20;;;8.70;99.90;;;;;;4966133;28;20156;-77
2023/01/08 03:33:32;;;;;;;8.20;2.97;;;8.60;99.90;;;;;;4984768;28;20046;-77
2023/01/08 03:36:02;;;;;;;8.98;3.15;;;8.60;99.90;;;;;;4952155;28;20042;-77
2023/01/08 03:38:32;;;;;;;10.10;2.92;;;8.60;99.90;;;;;;4982842;28;20050;-78
2023/01/08 03:41:06;;;;;;;8.43;3.05;;;8.60;99.90;;;;;;4981717;28;20097;-77
2023/01/08 03:43:31;;;;;;;7.60;3.00;;;8.60;99.90;;;;;;4982897;28;20069;-77
2023/01/08 03:46:01;;;;;;;8.05;3.45;;;8.60;99.90;;;;;;4964472;28;20050;-72
2023/01/08 03:48:30;;;;;;;7.85;3.72;;;8.60;99.90;;;;;;4980487;28;20043;-72
2023/01/08 03:50:56;;;;;;;6.78;3.47;;;8.60;99.90;;;;;;4980732;28;20050;-72
2023/01/08 03:53:22;;;;;;;8.93;4.07;;;8.60;99.90;;;;;;4955363;28;20050;-72
2023/01/08 03:55:48;;;;;;;9.68;4.25;;;8.70;99.90;;;;;;4960939;28;20105;-73
2023/01/08 03:58:14;;;;;;;8.30;4.45;;;8.70;99.90;;;;;;4960842;28;20572;-73
2023/01/08 04:00:39;;;;;;;7.75;4.63;;;8.80;99.90;;;;;;4960156;28;20054;-72
2023/01/08 04:03:06;;;;;;;7.80;4.55;;;8.80;99.90;;;;;;4979330;28;20166;-73
2023/01/08 04:05:32;;;;;;;9.52;4.95;;;8.80;99.90;;;;;;4933788;28;1243074;-72
2023/01/08 04:07:58;;;;;;;7.10;5.00;;;8.90;99.90;;;;;;4952169;28;20038;-72
2023/01/08 04:10:24;;;;;;;7.38;4.70;;;8.90;99.90;;;;;;4963911;28;20457;-73
2023/01/08 04:12:50;;;;;;;6.85;4.60;;;8.90;99.90;;;;;;4967891;28;20038;-73
2023/01/08 04:15:16;;;;;;;8.98;4.78;;;8.90;99.90;;;;;;4950378;28;20093;-73
2023/01/08 04:17:42;;;;;;;7.40;4.97;;;9.00;99.90;;;;;;4969655;28;20046;-72
2023/01/08 04:20:08;;;;;;;8.20;4.75;;;9.00;99.90;;;;;;4982679;28;20046;-73
2023/01/08 04:22:34;;;;;;;7.00;3.97;;;9.00;99.90;;;;;;4985335;28;20065;-73
2023/01/08 04:25:00;;;;;;;7.75;3.88;;;9.10;99.90;;;;;;4964956;28;20454;-73
2023/01/08 04:27:26;;;;;;;6.13;3.92;;;9.10;99.90;;;;;;4984615;28;20043;-78
2023/01/08 04:29:54;;;;;;;8.32;4.50;;;9.10;99.90;;;;;;4984470;28;20049;-78
2023/01/08 04:32:20;;;;;;;6.07;3.42;;;9.10;99.90;;;;;;4964244;28;20038;-78
2023/01/08 04:34:46;;;;;;;6.70;3.80;;;9.20;99.90;;;;;;4965904;28;20042;-78
2023/01/08 04:37:11;;;;;;;6.80;3.70;;;9.20;99.90;;;;;;4967184;28;20038;-78
2023/01/08 04:39:38;;;;;;;6.03;3.60;;;9.10;99.90;;;;;;4984088;28;20105;-78
2023/01/08 04:42:04;;;;;;;5.10;3.08;;;9.20;99.90;;;;;;4981475;28;20116;-79
2023/01/08 04:44:30;;;;;;;4.97;3.08;;;9.20;99.90;;;;;;4969997;28;20445;-78
2023/01/08 04:46:56;;;;;;;5.22;2.97;;;9.10;99.90;;;;;;4970328;28;20073;-78
2023/01/08 04:49:22;;;;;;;6.20;3.00;;;9.10;99.90;;;;;;4969550;28;20113;-79
2023/01/08 04:51:47;;;;;;;4.55;2.95;;;9.10;99.90;;;;;;4986353;28;20050;-78
2023/01/08 04:54:13;;;;;;;5.65;2.95;;;9.00;99.90;;;;;;4985928;28;20038;-78
2023/01/08 04:56:39;;;;;;;5.60;2.65;;;9.10;99.90;;;;;;4953344;28;20508;-78
2023/01/08 04:59:05;;;;;;;5.68;2.58;;;9.10;99.90;;;;;;4969720;28;20528;-78
2023/01/08 05:01:34;;;;;;;4.95;2.67;;;9.10;99.90;;;;;;4985927;28;20042;-78
2023/01/08 05:04:03;;;;;;;3.80;2.60;;;9.00;99.90;;;;;;4943823;28;20043;-79
2023/01/08 05:06:30;;;;;;;6.57;3.25;;;9.00;99.90;;;;;;4985768;28;20508;-78
2023/01/08 05:08:57;;;;;;;6.25;2.80;;;9.00;99.90;;;;;;4964879;28;20054;-78
2023/01/08 05:11:23;;;;;;;5.10;2.58;;;9.00;99.90;;;;;;4991435;28;20065;-79
2023/01/08 05:13:50;;;;;;;8.05;2.88;;;9.00;99.90;;;;;;4986608;28;20058;-80
2023/01/08 05:16:16;;;;;;;5.45;2.78;;;9.00;99.90;;;;;;4969691;28;20093;-79
2023/01/08 05:18:43;;;;;;;4.78;2.53;;;9.00;99.90;;;;;;4967945;28;20081;-79
2023/01/08 05:21:09;;;;;;;5.72;2.63;;;9.00;99.90;;;;;;4965032;28;20046;-73
2023/01/08 05:23:36;;;;;;;4.72;2.13;;;8.90;99.90;;;;;;4991238;28;20554;-73
2023/01/08 05:26:04;;;;;;;5.55;2.63;;;8.90;99.90;;;;;;4985517;28;20538;-73
2023/01/08 05:28:30;;;;;;;5.70;2.33;;;8.90;99.90;;;;;;4976385;28;20058;-73
2023/01/08 05:30:56;;;;;;;5.32;2.58;;;8.90;99.90;;;;;;4982314;28;20046;-73
2023/01/08 05:33:23;;;;;;;6.15;2.30;;;8.90;99.90;;;;;;4945077;28;20069;-73
2023/01/08 05:35:49;;;;;;;6.07;2.50;;;8.80;99.90;;;;;;4984898;28;20054;-73
2023/01/08 05:38:14;;;;;;;7.20;2.60;;;8.80;99.90;;;;;;4969527;28;20035;-72
2023/01/08 05:40:41;;;;;;;7.03;2.90;;;8.80;99.90;;;;;;4986221;28;20085;-74
2023/01/08 05:43:07;;;;;;;5.28;2.80;;;8.80;99.90;;;;;;4987524;28;20657;-72
2023/01/08 05:45:33;;;;;;;7.30;3.20;;;8.90;99.90;;;;;;4969456;28;20413;-71
2023/01/08 05:47:59;;;;;;;5.47;2.55;;;8.80;99.90;;;;;;4987567;28;20054;-72
2023/01/08 05:50:25;;;;;;;6.25;3.05;;;8.80;99.90;;;;;;4967675;28;20042;-72
2023/01/08 05:52:51;;;;;;;7.22;3.10;;;8.80;99.90;;;;;;4986911;28;20046;-72
2023/01/08 05:55:17;;;;;;;6.97;3.80;;;8.80;99.90;;;;;;4968380;28;20574;-72
2023/01/08 05:57:42;;;;;;;7.90;3.70;;;8.80;99.90;;;;;;4962681;28;20046;-72
2023/01/08 06:00:09;;;;;;;6.32;3.78;;;8.80;99.90;;;;;;4969648;28;20125;-72
2023/01/08 06:02:35;;;;;;;8.25;4.03;;;8.80;99.90;;;;;;4961495;28;20089;-72
2023/01/08 06:05:01;;;;;;;7.15;3.92;;;8.80;99.90;;;;;;4968019;28;20078;-72
2023/01/08 06:07:30;;;;;;;6.13;3.83;;;8.80;99.90;;;;;;4967972;28;20172;-74
2023/01/08 06:09:56;;;;;;;7.30;4.20;;;8.80;99.90;;;;;;4986251;28;20064;-72
2023/01/08 06:12:21;;;;;;;7.10;4.50;;;8.80;99.90;;;;;;4962007;28;20536;-73
2023/01/08 06:14:47;;;;;;;8.00;4.47;;;8.70;99.90;;;;;;4982599;28;20609;-73
2023/01/08 06:17:14;;;;;;;6.78;3.60;;;8.70;99.90;;;;;;4945457;28;20062;-73
2023/01/08 06:19:40;;;;;;;7.95;3.90;;;8.70;99.90;;;;;;4966803;28;20141;-73
2023/01/08 06:22:06;;;;;;;7.13;3.47;;;8.70;99.90;;;;;;4953053;28;20719;-78
2023/01/08 06:24:32;;;;;;;7.43;3.50;;;8.70;99.90;;;;;;4981866;28;20053;-78
2023/01/08 06:26:58;;;;;;;9.43;4.07;;;8.80;99.90;;;;;;4965704;28;20100;-79
2023/01/08 06:29:23;;;;;;;7.03;3.33;;;8.70;99.90;;;;;;4967668;28;20051;-79
2023/01/08 06:31:49;;;;;;;7.18;3.55;;;8.70;99.90;;;;;;4982064;28;20049;-78
2023/01/08 06:34:15;;;;;;;6.85;3.83;;;8.70;99.90;;;;;;4961897;28;20583;-79
2023/01/08 06:36:41;;;;;;;7.28;3.20;;;8.70;99.90;;;;;;4950139;28;20163;-78
2023/01/08 06:39:07;;;;;;;8.55;4.05;;;8.70;99.90;;;;;;4953346;28;20404;-78
2023/01/08 06:41:33;;;;;;;9.00;3.13;;;8.60;99.90;;;;;;4969078;28;20118;-78
2023/01/08 06:43:59;;;;;;;6.88;3.10;;;8.60;99.90;;;;;;4966446;28;20728;-78
2023/01/08 06:46:25;;;;;;;7.32;2.97;;;8.60;99.90;;;;;;4965052;28;20052;-78
2023/01/08 06:48:51;;;;;;;8.77;3.10;;;8.60;99.90;;;;;;4970811;28;20126;-78
2023/01/08 06:51:17;;;;;;;6.95;3.45;;;8.50;99.90;;;;;;4986320;28;20777;-79
2023/01/08 06:53:46;;;;;;;8.65;3.00;;;8.50;99.90;;;;;;4981091;28;20511;-80
2023/01/08 06:56:12;;;;;;;7.55;2.50;;;8.50;99.90;;;;;;4980508;28;20105;-79
2023/01/08 06:58:38;;;;;;;6.90;2.92;;;8.50;99.90;;;;;;4968857;28;20070;-78
2023/01/08 07:01:07;;;;;;;8.25;2.88;;;8.50;99.90;;;;;;4962465;28;20047;-79
2023/01/08 07:03:33;;;;;;;7.65;2.45;;;8.50;99.90;;;;;;4965056;28;20045;-78
2023/01/08 07:06:01;;;;;;;8.27;2.35;;;8.50;99.90;;;;;;4989485;28;20049;-79
2023/01/08 07:08:27;;;;;;;7.53;2.33;;;8.40;99.90;;;;;;4972723;28;20134;-79
2023/01/08 07:10:53;;;;;;;7.53;2.47;;;8.40;99.90;;;;;;4972230;28;20124;-79
2023/01/08 07:13:19;;;;;;;7.00;2.70;;;8.40;99.90;;;;;;4986535;28;20512;-78
2023/01/08 07:15:45;;;;;;;6.63;2.42;;;8.40;99.90;;;;;;4972852;28;20046;-78
2023/01/08 07:18:12;;;;;;;7.22;2.40;;;8.40;99.90;;;;;;4979594;28;20038;-78
2023/01/08 07:20:38;;;;;;;6.47;2.40;;;8.30;99.90;;;;;;4988257;28;20140;-78
2023/01/08 07:23:06;;;;;;;7.60;2.20;;;8.30;99.90;;;;;;4956262;28;20045;-78
2023/01/08 07:25:32;;;;;;;6.70;2.42;;;8.30;99.90;;;;;;4978618;28;20135;-78
2023/01/08 07:27:59;;;;;;;8.27;2.30;;;8.20;99.90;;;;;;4952225;28;20073;-78
2023/01/08 07:30:25;;;;;;;7.20;2.20;;;8.20;99.90;;;;;;4972323;28;20038;-73
2023/01/08 07:32:51;;;;;;;7.15;2.60;;;8.30;99.90;;;;;;4965839;28;20107;-72
2023/01/08 07:35:17;;;;;;;8.00;2.38;;;8.30;99.90;;;;;;4952907;28;20041;-74
2023/01/08 07:37:43;;;;;;;8.73;2.88;;;8.30;99.90;;;;;;4985559;28;20045;-72
2023/01/08 07:40:10;;;;;;;8.15;2.92;;;8.30;99.90;;;;;;4987438;28;20053;-72
2023/01/08 07:42:39;;;;;;;6.97;3.00;;;8.30;99.90;;;;;;4982586;28;20455;-72
2023/01/08 07:45:06;;;;;;;8.10;3.22;;;8.30;99.90;;;;;;4971843;28;20138;-72
2023/01/08 07:47:32;;;;;;;9.20;3.20;;;8.30;99.90;;;;;;4937407;28;20053;-72
2023/01/08 07:49:58;;;;;;;7.85;3.65;;;8.30;99.90;;;;;;4942290;28;20047;-72
2023/01/08 07:52:24;;;;;;;7.93;3.40;;;8.30;99.90;;;;;;4954024;28;20050;-71
2023/01/08 07:54:50;;;;;;;8.85;3.67;;;8.30;99.90;;;;;;4971050;28;20038;-72
2023/01/08 07:57:16;;;;;;;9.15;3.63;;;8.30;99.90;;;;;;4971042;28;20571;-72
2023/01/08 07:59:41;;;;;;;7.28;2.90;;;8.30;99.90;;;;;;4954261;28;20508;-72
2023/01/08 08:02:10;;;;;;;10.02;3.60;;;8.20;99.90;;;;;;4953035;28;20104;-72
2023/01/08 08:04:36;;;;;;;8.60;3.40;;;8.20;99.90;;;;;;4970695;28;20090;-72
2023/01/08 08:07:02;;;;;;;8.48;3.10;;;8.10;99.90;;;;;;4972439;28;20049;-72
2023/01/08 08:09:28;;;;;;;10.40;3.42;;;8.10;99.90;;;;;;4970558;28;20049;-72
2023/01/08 08:11:54;;;;;;;8.55;3.20;;;8.10;99.90;;;;;;4970664;28;20038;-73
2023/01/08 08:14:19;;;;;;;9.40;2.80;;;8.00;99.90;;;;;;4970055;28;20052;-73
2023/01/08 08:16:45;;;;;;;10.65;3.35;;;8.00;99.90;;;;;;4977899;28;20077;-74
2023/01/08 08:19:11;;;;;;;7.78;3.10;;;8.00;99.90;;;;;;4985841;28;20089;-73
2023/01/08 08:21:37;;;;;;;8.38;3.40;;;8.00;99.90;;;;;;4972346;28;20089;-73
2023/01/08 08:24:04;;;;;;;10.48;3.13;;;7.90;99.90;;;;;;4985707;28;20730;-72
2023/01/08 08:26:32;;;;;;;7.85;2.50;;;7.90;99.90;;;;;;4970026;28;20484;-72
2023/01/08 08:28:58;;;;;;;9.13;3.10;;;7.90;99.90;;;;;;4988244;28;20128;-73
2023/01/08 08:31:24;;;;;;;8.73;2.70;;;7.90;99.90;;;;;;4969795;28;20129;-73
2023/01/08 08:33:49;;;;;;;8.98;3.03;;;7.90;99.90;;;;;;4970859;28;20049;-73
2023/01/08 08:36:15;;;;;;;8.32;2.95;;;7.90;99.90;;;;;;4968998;28;20077;-73
2023/01/08 08:38:41;;;;;;;6.22;2.60;;;7.90;99.90;;;;;;4970123;28;20042;-74
2023/01/08 08:41:07;;;;;;;7.28;2.38;;;7.90;99.90;;;;;;4968613;28;20034;-72
2023/01/08 08:43:32;;;;;;;7.15;2.67;;;7.90;99.90;;;;;;4954014;28;20053;-72
2023/01/08 08:45:58;;;;;;;7.78;2.40;;;7.90;99.90;;;;;;4970095;28;20069;-72
2023/01/08 08:48:24;;;;;;;5.13;2.28;;;7.90;99.90;;;;;;4968665;28;20151;-72
2023/01/08 08:50:51;;;;;;;8.57;2.95;;;7.90;99.90;;;;;;4966231;28;20129;-73
2023/01/08 08:53:16;;;;;;;8.13;2.40;;;7.90;99.90;;;;;;4968988;28;20029;-72
2023/01/08 08:55:42;;;;;;;10.35;2.63;;;7.90;99.90;;;;;;4970428;28;20053;-80
2023/01/08 08:58:10;;;;;;;9.70;2.63;;;7.90;99.90;;;;;;4968648;28;20144;-79
2023/01/08 09:00:40;;;;;;;8.73;2.78;;;7.90;99.90;;;;;;4986731;28;20054;-79
2023/01/08 09:03:09;;;;;;;;;;;7.90;99.90;;;;;;4971278;28;20125;-79
2023/01/08 09:05:36;;;;;;;5.72;2.83;;;7.90;99.90;;;;;;4986750;28;19928;-79
2023/01/08 09:08:02;;;;;;;7.95;2.80;;;7.90;99.90;;;;;;4986567;28;20523;-80
2023/01/08 09:10:28;;;;;;;7.05;2.53;;;7.90;99.90;;;;;;4968587;28;20037;-80
2023/01/08 09:12:53;;;;;;;9.65;3.15;;;8.00;99.90;;;;;;4969723;28;20407;-80
2023/01/08 09:15:21;;;;;;;8.60;2.53;;;8.00;99.90;;;;;;4965229;28;20700;-80
2023/01/08 09:17:53;;;;;;;8.00;2.65;;;8.00;99.90;;;;;;4967227;28;20037;-79
2023/01/08 09:20:19;;;;;;;8.27;2.65;;;8.00;99.90;;;;;;4980954;28;20049;-79
2023/01/08 09:22:44;;;;;;;6.88;2.30;;;8.00;99.90;;;;;;4969420;28;20378;-79
2023/01/08 09:25:10;;;;;;;7.97;2.33;;;8.00;99.90;;;;;;4939932;28;20041;-79
2023/01/08 09:27:36;;;;;;;11.18;3.15;;;8.00;99.90;;;;;;4967265;28;20053;-80
2023/01/08 09:30:02;;;;;;;8.65;2.67;;;8.10;99.90;;;;;;4956548;28;20513;-79
2023/01/08 09:32:28;;;;;;;5.90;2.15;;;8.00;99.90;;;;;;4955914;28;20042;-80
2023/01/08 09:34:54;;;;;;;6.53;2.70;;;8.10;99.90;;;;;;4988174;28;20396;-79
2023/01/08 09:37:22;;;;;;;10.65;2.80;;;8.10;99.90;;;;;;4972795;28;20119;-79
2023/01/08 09:39:49;;;;;;;9.23;2.53;;;8.10;99.90;;;;;;4968645;28;20064;-81
2023/01/08 09:42:18;;;;;;;7.72;2.42;;;8.10;99.90;;;;;;4968952;28;20583;-79
2023/01/08 09:44:45;;;;;;;7.32;2.30;;;8.10;99.90;;;;;;4987175;28;20054;-80
2023/01/08 09:47:36;;;;;;;10.98;2.67;;;8.10;99.90;;;;;;4968665;28;20073;-80
2023/01/08 09:50:09;;;;;;;7.78;2.20;;;8.20;99.90;;;;;;4963155;28;20105;-80
2023/01/08 09:52:37;;;;;;;7.00;2.00;;;8.20;99.90;;;;;;4984649;28;20409;-79
2023/01/08 09:55:08;;;;;;;9.05;2.70;;;8.20;99.90;;;;;;4970967;28;20037;-80
2023/01/08 09:57:35;;;;;;;11.52;2.75;;;8.20;99.90;;;;;;4968664;28;21229;-74
2023/01/08 10:00:00;;;;;;;6.65;1.90;;;8.20;99.90;;;;;;4954693;28;20074;-72
2023/01/08 10:02:28;;;;;;;10.40;2.25;;;8.30;99.90;;;;;;4983803;28;20084;-72
2023/01/08 10:04:59;;;;;;;9.18;2.20;;;8.30;99.90;;;;;;4984255;28;20067;-72
2023/01/08 10:07:26;;;;;;;16.20;3.65;;;8.30;99.90;;;;;;4985686;28;20108;-72
2023/01/08 10:09:53;;;;;;;8.38;2.10;;;8.30;99.90;;;;;;4954090;28;20034;-72
2023/01/08 10:12:38;;;;;;;11.60;2.63;;;8.30;99.90;;;;;;4970693;28;20461;-72
2023/01/08 10:15:10;;;;;;;10.90;2.53;;;8.40;99.90;;;;;;4968660;28;20145;-79
2023/01/08 10:17:42;;;;;;;8.38;2.30;;;8.40;99.90;;;;;;4987918;28;20049;-79
2023/01/08 10:20:21;;;;;;;8.52;2.13;;;8.40;99.90;;;;;;4983960;28;20092;-79
2023/01/08 10:22:47;;;;;;;8.80;2.42;;;8.50;99.90;;;;;;4967788;28;20283;-73
2023/01/08 10:25:19;;;;;;;8.90;2.65;;;8.40;99.90;;;;;;4976329;28;20049;-73
2023/01/08 10:27:57;;;;;;;9.25;2.55;;;8.50;99.90;;;;;;4980118;28;20515;-74
2023/01/08 10:30:34;;;;;;;12.18;3.20;;;8.50;99.90;;;;;;4988813;28;20408;-80
2023/01/08 10:33:09;;;;;;;11.05;2.63;;;8.60;99.90;;;;;;4977686;28;20370;-81
2023/01/08 10:35:40;;;;;;;9.98;2.50;;;8.60;99.90;;;;;;4990141;28;20049;-74
2023/01/08 10:38:06;;;;;;;10.40;2.22;;;8.60;99.90;;;;;;4971168;28;20053;-80
2023/01/08 10:40:48;;;;;;;11.75;2.53;;;8.70;99.90;;;;;;4988496;28;20122;-80
2023/01/08 10:43:16;;;;;;;12.77;2.92;;;8.60;99.90;;;;;;4990233;28;20371;-80
2023/01/08 10:45:53;;;;;;;8.75;2.45;;;8.70;99.90;;;;;;4976144;28;20503;-80
2023/01/08 10:48:19;;;;;;;11.05;2.70;;;8.70;99.90;;;;;;4974093;28;20038;-80
2023/01/08 10:50:46;;;;;;;12.30;2.55;;;8.70;99.90;;;;;;4987212;28;20053;-81
2023/01/08 10:53:27;;;;;;;11.80;3.03;;;8.70;99.90;;;;;;4985220;28;20046;-73
2023/01/08 10:55:58;;;;;;;11.05;2.38;;;8.70;99.90;;;;;;4960470;28;20050;-73
2023/01/08 10:58:24;;;;;;;;;;;8.70;99.90;;;;;;4982454;28;20045;-80
2023/01/08 11:00:49;;;;;;;11.57;2.40;;;8.70;99.90;;;;;;4983688;28;20227;-81
2023/01/08 11:03:42;;;;;;;11.93;2.90;;;8.80;99.90;;;;;;4948425;28;20089;-79
2023/01/08 11:06:13;;;;;;;10.85;2.72;;;8.80;99.90;;;;;;4984005;28;20037;-79
2023/01/08 11:08:48;;;;;;;13.55;2.60;;;8.80;99.90;;;;;;4966941;28;20050;-79
2023/01/08 11:11:14;;;;;;;10.45;2.28;;;8.80;99.90;;;;;;4988720;28;20455;-78
2023/01/08 11:13:39;;;;;;;11.55;2.30;;;8.80;99.90;;;;;;4983588;28;20054;-80
2023/01/08 11:16:09;;;;;;;14.18;2.75;;;8.90;99.90;;;;;;4955637;28;20143;-78
2023/01/08 11:18:49;;;;;;;10.47;2.67;;;8.90;99.90;;;;;;4970320;28;20066;-79
2023/01/08 11:21:30;;;;;;;12.98;2.75;;;8.90;99.90;;;;;;4985937;28;20362;-79
2023/01/08 11:24:09;;;;;;;8.98;2.58;;;8.90;99.90;;;;;;4980682;28;20130;-78
2023/01/08 11:26:39;;;;;;;10.80;2.60;;;9.00;99.90;;;;;;4969038;28;20137;-79
2023/01/08 11:29:37;;;;;;;11.63;2.63;;;9.00;99.90;;;;;;4976901;28;20056;-77
2023/01/08 11:32:19;;;;;;;17.75;2.85;;;9.00;99.90;;;;;;4954757;28;20144;-78
2023/01/08 11:35:03;;;;;;;10.93;3.13;;;8.90;99.90;;;;;;4969005;28;20074;-78
2023/01/08 11:37:38;;;;;;;12.93;2.30;;;9.00;99.90;;;;;;4982398;28;20128;-79
2023/01/08 11:40:16;;;;;;;11.43;2.80;;;9.10;99.90;;;;;;4981778;28;20997;-78
2023/01/08 11:43:11;;;;;;;14.00;2.58;;;9.10;99.90;;;;;;4982681;28;20042;-77
2023/01/08 11:45:47;;;;;;;10.27;3.03;;;9.10;99.90;;;;;;4968626;28;20046;-78
2023/01/08 11:48:37;;;;;;;11.27;2.97;;;9.20;99.90;;;;;;4973847;28;20073;-79
2023/01/08 11:51:22;;;;;;;12.35;3.00;;;9.20;99.90;;;;;;4980976;28;20054;-78
2023/01/08 11:54:11;;;;;;;10.80;2.67;;;9.20;99.90;;;;;;4983581;28;20077;-77
2023/01/08 11:57:11;;;;;;;13.93;3.78;;;9.20;99.90;;;;;;4967023;28;20528;-77
2023/01/08 12:00:14;;;;;;;11.43;3.20;;;9.20;99.90;;;;;;4964633;28;20405;-78
2023/01/08 12:02:53;;;;;;;16.25;3.15;;;9.20;99.90;;;;;;4969663;28;20050;-78
2023/01/08 12:05:31;;;;;;;12.73;2.83;;;9.20;99.90;;;;;;4973527;28;20132;-78
2023/01/08 12:08:10;;;;;;;11.15;3.47;;;9.20;99.90;;;;;;4971437;28;20120;-74
2023/01/08 12:10:43;;;;;;;14.30;3.58;;;9.20;99.90;;;;;;4978863;28;20042;-74
2023/01/08 12:13:26;;;;;;;16.80;3.95;;;9.20;99.90;;;;;;4980909;28;20069;-73
2023/01/08 12:15:58;;;;;;;13.88;3.00;;;9.20;99.90;;;;;;4962272;28;20046;-74
2023/01/08 12:18:48;;;;;;;10.50;2.78;;;9.20;99.90;;;;;;4980763;28;20037;-74
2023/01/08 12:21:32;;;;;;;10.25;3.00;;;9.20;99.90;;;;;;4974380;28;20042;-74
2023/01/08 12:24:18;;;;;;;11.88;3.10;;;9.20;99.90;;;;;;4966965;28;20523;-80
2023/01/08 12:27:21;;;;;;;12.23;3.47;;;9.20;99.90;;;;;;4983237;28;20393;-80
2023/01/08 12:30:21;;;;;;;13.75;3.30;;;9.20;99.90;;;;;;4970578;28;21245;-80
2023/01/08 12:32:55;;;;;;;12.75;3.13;;;9.20;99.90;;;;;;4987336;28;20081;-80
2023/01/08 12:35:30;;;;;;;17.95;3.38;;;9.30;99.90;;;;;;4971756;28;20108;-81
2023/01/08 12:38:14;;;;;;;11.98;2.65;;;9.30;99.90;;;;;;4985435;28;20054;-80
2023/01/08 12:40:55;;;;;;;11.00;2.97;;;9.40;99.90;;;;;;4968851;28;20048;-81
2023/01/08 12:43:56;;;;;;;12.15;3.22;;;9.40;99.90;;;;;;4982796;28;20081;-80
2023/01/08 12:46:24;;;;;;;12.18;2.90;;;9.40;99.90;;;;;;4985491;28;20049;-81
2023/01/08 12:48:53;;;;;;;10.15;2.88;;;9.40;99.90;;;;;;4990227;28;20448;-80
2023/01/08 12:51:53;;;;;;;10.45;2.78;;;9.50;99.90;;;;;;4971547;28;20143;-81
2023/01/08 12:54:47;;;;;;;10.60;2.40;;;9.50;99.90;;;;;;4975832;28;20050;-79
2023/01/08 12:57:21;;;;;;;10.65;2.47;;;9.50;99.90;;;;;;4982510;28;20104;-81
2023/01/08 13:00:08;;;;;;;10.93;3.28;;;9.50;99.90;;;;;;4966705;28;20037;-79
2023/01/08 13:02:49;;;;;;;11.43;2.75;;;9.50;99.90;;;;;;4983209;28;20092;-81
2023/01/08 13:05:17;;;;;;;13.77;3.63;;;9.60;99.90;;;;;;4980109;28;20050;-81
2023/01/08 13:08:05;;;;;;;12.15;3.17;;;9.60;99.90;;;;;;4965293;28;20146;-79
2023/01/08 13:10:33;;;;;;;8.63;2.53;;;9.50;99.90;;;;;;4979995;28;20050;-79